CYYZ

Lester B. Pearson International Airport

Code ICAO CYYZ
Code IATA YYZ
Nom Lester B. Pearson International Airport
Emplacement Toronto, Ontario, CA
Élévation 569 pieds / 173.4 mètres
Latitude 43.67720032
Longitude -79.63059998
METAR CYYZ 080600Z 10002KT 15SM FEW150 FEW240 04/03 A2988 RMK AC1CI1 SLP123
Informations extras Afficher cartes et CFS
Afficher NOTAMS
Piste Longueur Largeur Surface Élévation
05 11120 ft 200 ft ASP/CONC 564 ft
06L 9697 ft 200 ft ASP 529 ft
06R 9000 ft 200 ft ASP 525 ft
15L 11050 ft 200 ft ASP 557 ft
15R 9088 ft 200 ft ASP 551 ft
23 11120 ft 200 ft ASP/CONC 560 ft
24R 9697 ft 200 ft ASP 546 ft
24L 9000 ft 200 ft ASP 547 ft
33R 11050 ft 200 ft ASP 544 ft
33L 9088 ft 200 ft ASP 544 ft